createdAt,value
2023-05-06T00:01:01.770Z,99649.88
2023-05-06T00:03:30.027Z,99649.02
2023-05-06T00:05:57.786Z,99648.36
2023-05-06T00:08:26.371Z,99643.84
2023-05-06T00:10:54.097Z,99639.83
2023-05-06T00:13:21.721Z,99638.27
2023-05-06T00:15:49.370Z,99638.61
2023-05-06T00:18:17.313Z,99639.33
2023-05-06T00:20:44.950Z,99640.02
2023-05-06T00:23:12.665Z,99638.30
2023-05-06T00:25:40.296Z,99640.56
2023-05-06T00:28:07.936Z,99642.67
2023-05-06T00:30:35.833Z,99640.05
2023-05-06T00:33:03.599Z,99637.27
2023-05-06T00:35:31.328Z,99631.70
2023-05-06T00:37:59.142Z,99630.14
2023-05-06T00:40:26.838Z,99636.79
2023-05-06T00:42:54.478Z,99638.70
2023-05-06T00:45:22.179Z,99636.63
2023-05-06T00:47:49.821Z,99639.24
2023-05-06T00:50:17.477Z,99641.15
2023-05-06T00:52:45.123Z,99638.88
2023-05-06T00:55:12.724Z,99636.98
2023-05-06T00:57:40.521Z,99635.75
2023-05-06T01:00:08.162Z,99637.33
2023-05-06T01:02:46.506Z,99633.50
2023-05-06T01:05:14.992Z,99633.86
2023-05-06T01:07:42.745Z,99635.07
2023-05-06T01:10:10.589Z,99639.25
2023-05-06T01:12:38.267Z,99636.65
2023-05-06T01:15:08.640Z,99635.60
2023-05-06T01:17:36.822Z,99633.69
2023-05-06T01:20:06.566Z,99634.02
2023-05-06T01:22:34.196Z,99627.23
2023-05-06T01:25:01.824Z,99629.67
2023-05-06T01:27:29.518Z,99630.90
2023-05-06T01:29:57.144Z,99630.38
2023-05-06T01:32:24.791Z,99629.51
2023-05-06T01:34:52.440Z,99629.52
2023-05-06T01:37:20.086Z,99623.58
2023-05-06T01:39:48.701Z,99626.37
2023-05-06T01:42:16.304Z,99623.39
2023-05-06T01:44:43.904Z,99623.57
2023-05-06T01:47:11.516Z,99618.88
2023-05-06T01:49:39.176Z,99613.65
2023-05-06T01:52:06.807Z,99613.63
2023-05-06T01:54:34.441Z,99608.59
2023-05-06T01:57:02.930Z,99605.45
2023-05-06T01:59:30.582Z,99603.66
2023-05-06T02:01:58.215Z,99602.80
2023-05-06T02:04:25.884Z,99603.14
2023-05-06T02:06:53.510Z,99598.61
2023-05-06T02:09:21.183Z,99592.86
2023-05-06T02:11:48.803Z,99590.77
2023-05-06T02:14:16.421Z,99591.27
2023-05-06T02:16:44.017Z,99593.02
2023-05-06T02:19:12.523Z,99594.40
2023-05-06T02:21:40.139Z,99588.30
2023-05-06T02:24:07.782Z,99588.65
2023-05-06T02:26:35.423Z,99582.74
2023-05-06T02:29:03.034Z,99575.95
2023-05-06T02:31:30.801Z,99579.77
2023-05-06T02:33:58.465Z,99577.66
2023-05-06T02:36:26.161Z,99575.24
2023-05-06T02:38:54.310Z,99574.88
2023-05-06T02:41:22.058Z,99574.89
2023-05-06T02:43:50.035Z,99579.39
2023-05-06T02:46:17.781Z,99584.80
2023-05-06T02:48:45.433Z,99584.27
2023-05-06T02:51:13.113Z,99583.39
2023-05-06T02:53:40.776Z,99584.06
2023-05-06T02:56:08.789Z,99585.98
2023-05-06T02:58:36.417Z,99589.63
2023-05-06T03:01:04.131Z,99587.89
2023-05-06T03:03:31.765Z,99589.81
2023-05-06T03:05:59.361Z,99594.88
2023-05-06T03:08:27.002Z,99600.27
2023-05-06T03:10:54.625Z,99599.58
2023-05-06T03:13:22.345Z,99597.13
2023-05-06T03:15:50.023Z,99596.80
2023-05-06T03:18:17.722Z,99592.08
2023-05-06T03:20:45.410Z,99594.70
2023-05-06T03:23:13.076Z,99590.52
2023-05-06T03:25:41.136Z,99589.13
2023-05-06T03:28:08.788Z,99586.00
2023-05-06T03:30:36.427Z,99586.52
2023-05-06T03:33:04.127Z,99587.20
2023-05-06T03:35:31.755Z,99579.20
2023-05-06T03:37:59.431Z,99579.89
2023-05-06T03:40:27.051Z,99582.85
2023-05-06T03:42:54.739Z,99580.43
2023-05-06T03:45:22.419Z,99585.30
2023-05-06T03:47:50.082Z,99584.77
2023-05-06T03:50:17.761Z,99584.61
2023-05-06T03:52:45.462Z,99580.64
2023-05-06T03:55:13.066Z,99579.60
2023-05-06T03:57:40.825Z,99579.44
2023-05-06T04:00:09.229Z,99583.09
2023-05-06T04:02:37.063Z,99585.88
2023-05-06T04:05:05.067Z,99587.63
2023-05-06T04:07:32.781Z,99587.44
2023-05-06T04:10:00.420Z,99588.66
2023-05-06T04:12:28.042Z,99587.96
2023-05-06T04:14:55.717Z,99593.01
2023-05-06T04:17:23.380Z,99591.11
2023-05-06T04:19:51.002Z,99592.50
2023-05-06T04:22:18.619Z,99589.02
2023-05-06T04:24:46.438Z,99586.77
2023-05-06T04:27:14.062Z,99588.17
2023-05-06T04:29:41.654Z,99586.11
2023-05-06T04:32:11.902Z,99585.94
2023-05-06T04:34:39.509Z,99584.54
2023-05-06T04:37:07.195Z,99584.20
2023-05-06T04:39:37.058Z,99582.97
2023-05-06T04:42:04.737Z,99586.63
2023-05-06T04:44:34.184Z,99586.29
2023-05-06T04:47:01.861Z,99591.86
2023-05-06T04:49:29.483Z,99590.64
2023-05-06T04:51:57.396Z,99590.80
2023-05-06T04:54:25.049Z,99588.36
2023-05-06T04:56:52.662Z,99585.77
2023-05-06T04:59:20.366Z,99585.23
2023-05-06T05:01:48.087Z,99585.77
2023-05-06T05:04:16.205Z,99586.46
2023-05-06T05:06:43.887Z,99584.87
2023-05-06T05:09:11.535Z,99581.20
2023-05-06T05:11:39.165Z,99577.20
2023-05-06T05:14:06.820Z,99570.21
2023-05-06T05:16:34.458Z,99575.78
2023-05-06T05:19:03.743Z,99576.83
2023-05-06T05:21:31.913Z,99577.67
2023-05-06T05:23:59.538Z,99575.77
2023-05-06T05:26:27.150Z,99575.92
2023-05-06T05:28:54.803Z,99578.20
2023-05-06T05:31:22.436Z,99577.48
2023-05-06T05:33:50.303Z,99575.89
2023-05-06T05:36:18.061Z,99574.30
2023-05-06T05:38:47.867Z,99572.38
2023-05-06T05:41:17.311Z,99572.89
2023-05-06T05:43:45.354Z,99580.91
2023-05-06T05:46:13.039Z,99582.83
2023-05-06T05:48:40.661Z,99580.20
2023-05-06T05:51:08.313Z,99581.94
2023-05-06T05:53:36.028Z,99580.70
2023-05-06T05:56:03.759Z,99579.44
2023-05-06T05:58:31.431Z,99579.59
2023-05-06T06:00:59.077Z,99573.98
2023-05-06T06:03:26.917Z,99574.46
2023-05-06T06:05:55.487Z,99574.94
2023-05-06T06:08:23.210Z,99574.04
2023-05-06T06:10:50.806Z,99563.55
2023-05-06T06:13:18.567Z,99562.30
2023-05-06T06:15:46.730Z,99565.95
2023-05-06T06:18:14.482Z,99563.84
2023-05-06T06:20:42.131Z,99561.73
2023-05-06T06:23:09.745Z,99562.09
2023-05-06T06:25:37.386Z,99561.21
2023-05-06T06:28:05.033Z,99563.83
2023-05-06T06:30:32.628Z,99563.11
2023-05-06T06:33:01.605Z,99563.42
2023-05-06T06:35:29.353Z,99559.89
2023-05-06T06:37:57.010Z,99558.63
2023-05-06T06:40:24.653Z,99555.96
2023-05-06T06:42:52.287Z,99553.30
2023-05-06T06:45:19.929Z,99556.41
2023-05-06T06:47:47.600Z,99557.08
2023-05-06T06:50:15.311Z,99554.58
2023-05-06T06:52:42.933Z,99551.20
2023-05-06T06:55:10.910Z,99551.69
2023-05-06T06:57:38.805Z,99554.79
2023-05-06T07:00:06.416Z,99546.52
2023-05-06T07:02:34.087Z,99544.89
2023-05-06T07:05:01.743Z,99545.73
2023-05-06T07:07:29.375Z,99542.72
2023-05-06T07:09:56.997Z,99544.62
2023-05-06T07:12:26.906Z,99544.77
2023-05-06T07:14:54.500Z,99541.76
2023-05-06T07:17:22.230Z,99537.66
2023-05-06T07:19:49.823Z,99534.97
2023-05-06T07:22:17.508Z,99530.73
2023-05-06T07:24:45.111Z,99524.70
2023-05-06T07:27:12.733Z,99527.46
2023-05-06T07:29:40.425Z,99525.67
2023-05-06T07:32:08.131Z,99527.71
2023-05-06T07:34:36.254Z,99527.66
2023-05-06T07:37:04.656Z,99532.34
2023-05-06T07:39:32.515Z,99533.17
2023-05-06T07:42:00.115Z,99531.04
2023-05-06T07:44:27.769Z,99535.02
2023-05-06T07:46:55.523Z,99530.23
2023-05-06T07:49:24.284Z,99527.90
2023-05-06T07:51:51.900Z,99523.79
2023-05-06T07:54:19.540Z,99517.76
2023-05-06T07:56:47.132Z,99510.50
2023-05-06T07:59:14.751Z,99506.55
2023-05-06T08:01:42.410Z,99503.48
2023-05-06T08:04:10.119Z,99498.31
2023-05-06T08:06:37.905Z,99499.80
2023-05-06T08:09:05.525Z,99503.40
2023-05-06T08:11:33.190Z,99502.79
2023-05-06T08:14:00.832Z,99501.48
2023-05-06T08:16:28.536Z,99502.45
2023-05-06T08:18:56.258Z,99498.17
2023-05-06T08:21:23.896Z,99504.69
2023-05-06T08:23:51.752Z,99504.24
2023-05-06T08:26:19.375Z,99507.68
2023-05-06T08:28:47.133Z,99506.52
2023-05-06T08:31:15.092Z,99508.20
2023-05-06T08:33:42.806Z,99505.14
2023-05-06T08:36:10.444Z,99498.05
2023-05-06T08:38:38.055Z,99497.96
2023-05-06T08:41:05.742Z,99500.15
2023-05-06T08:43:33.524Z,99494.77
2023-05-06T08:46:01.683Z,99491.70
2023-05-06T08:48:30.146Z,99490.02
2023-05-06T08:50:57.870Z,99484.64
2023-05-06T08:53:25.959Z,99481.55
2023-05-06T08:55:53.634Z,99479.86
2023-05-06T08:58:21.289Z,99476.07
2023-05-06T09:00:48.963Z,99476.85
2023-05-06T09:03:17.003Z,99478.67
2023-05-06T09:05:44.780Z,99468.92
2023-05-06T09:08:12.679Z,99467.55
2023-05-06T09:10:40.410Z,99467.48
2023-05-06T09:13:08.167Z,99462.36
2023-05-06T09:15:35.836Z,99460.01
2023-05-06T09:18:03.661Z,99460.27
2023-05-06T09:20:31.415Z,99460.20
2023-05-06T09:22:59.054Z,99460.95
2023-05-06T09:25:26.781Z,99463.92
2023-05-06T09:27:54.487Z,99456.20
2023-05-06T09:30:22.081Z,99455.48
2023-05-06T09:32:50.018Z,99449.85
2023-05-06T09:35:17.721Z,99441.80
2023-05-06T09:37:45.430Z,99446.42
2023-05-06T09:40:13.084Z,99438.59
2023-05-06T09:42:40.839Z,99436.60
2023-05-06T09:45:08.698Z,99433.14
2023-05-06T09:47:36.530Z,99428.40
2023-05-06T09:50:04.203Z,99430.54
2023-05-06T09:52:31.976Z,99428.08
2023-05-06T09:54:59.562Z,99423.65
2023-05-06T09:57:27.278Z,99419.39
2023-05-06T09:59:54.921Z,99411.67
2023-05-06T10:02:22.796Z,99407.16
2023-05-06T10:04:51.158Z,99395.58
2023-05-06T10:07:19.805Z,99393.34
2023-05-06T10:09:47.418Z,99388.73
2023-05-06T10:12:15.152Z,99388.09
2023-05-06T10:14:42.814Z,99378.58
2023-05-06T10:17:10.538Z,99373.89
2023-05-06T10:19:38.236Z,99373.45
2023-05-06T10:22:06.093Z,99368.39
2023-05-06T10:24:34.622Z,99363.20
2023-05-06T10:27:03.188Z,99353.66
2023-05-06T10:29:30.965Z,99349.84
2023-05-06T10:31:58.827Z,99343.16
2023-05-06T10:34:26.674Z,99336.33
2023-05-06T10:36:54.547Z,99335.60
2023-05-06T10:39:22.222Z,99327.05
2023-05-06T10:41:49.869Z,99320.65
2023-05-06T10:44:17.574Z,99312.13
2023-05-06T10:46:45.160Z,99311.16
2023-05-06T10:49:13.976Z,99308.09
2023-05-06T10:51:42.111Z,99303.81
2023-05-06T10:54:09.804Z,99300.41
2023-05-06T10:56:37.540Z,99296.11
2023-05-06T10:59:08.183Z,99290.02
2023-05-06T11:01:36.520Z,99290.75
2023-05-06T11:04:04.364Z,99288.81
2023-05-06T11:06:32.528Z,99285.98
2023-05-06T11:09:01.713Z,99282.77
2023-05-06T11:11:29.341Z,99280.81
2023-05-06T11:13:57.068Z,99272.84
2023-05-06T11:16:24.809Z,99270.55
2023-05-06T11:18:52.504Z,99266.66
2023-05-06T11:21:20.743Z,99264.65
2023-05-06T11:23:54.349Z,99257.88
2023-05-06T11:26:22.013Z,99254.52
2023-05-06T11:28:49.592Z,99251.27
2023-05-06T11:31:17.280Z,99245.35
2023-05-06T11:33:44.997Z,99241.58
2023-05-06T11:36:14.161Z,99232.35
2023-05-06T11:38:41.818Z,99226.81
2023-05-06T11:41:09.542Z,99222.16
2023-05-06T11:43:37.285Z,99214.23
2023-05-06T11:46:04.933Z,99203.30
2023-05-06T11:48:32.811Z,99198.73
2023-05-06T11:51:00.550Z,99194.80
2023-05-06T11:53:28.221Z,99190.91
2023-05-06T11:55:55.952Z,99188.28
2023-05-06T11:58:23.615Z,99181.37
2023-05-06T12:00:52.077Z,99181.70
2023-05-06T12:03:20.036Z,99183.33
2023-05-06T12:05:48.474Z,99178.46
2023-05-06T12:08:26.585Z,99175.35
2023-05-06T12:10:56.075Z,99170.48
2023-05-06T12:13:23.820Z,99165.09
2023-05-06T12:15:51.646Z,99162.35
2023-05-06T12:18:19.331Z,99158.13
2023-05-06T12:20:47.568Z,99158.20
2023-05-06T12:23:15.197Z,99156.93
2023-05-06T12:25:43.083Z,99149.86
2023-05-06T12:28:10.985Z,99153.61
2023-05-06T12:30:38.784Z,99154.78
2023-05-06T12:33:06.565Z,99151.38
2023-05-06T12:35:34.189Z,99151.16
2023-05-06T12:38:01.935Z,99145.31
2023-05-06T12:40:29.688Z,99141.77
2023-05-06T12:42:57.326Z,99137.86
2023-05-06T12:45:25.161Z,99129.78
2023-05-06T12:47:52.990Z,99128.17
2023-05-06T12:50:20.762Z,99121.31
2023-05-06T12:52:48.434Z,99119.56
2023-05-06T12:55:16.258Z,99113.64
2023-05-06T12:57:44.049Z,99116.45
2023-05-06T13:00:13.032Z,99116.98
2023-05-06T13:02:41.815Z,99115.41
2023-05-06T13:05:09.854Z,99119.44
2023-05-06T13:07:37.660Z,99122.77
2023-05-06T13:10:06.525Z,99125.91
2023-05-06T13:12:34.425Z,99126.05
2023-05-06T13:15:02.504Z,99139.41
2023-05-06T13:17:30.680Z,99155.21
2023-05-06T13:19:58.491Z,99159.10
2023-05-06T13:22:26.567Z,99172.96
2023-05-06T13:24:54.291Z,99180.05
2023-05-06T13:27:22.052Z,99193.48
2023-05-06T13:29:49.728Z,99221.17
2023-05-06T13:32:17.471Z,99249.02
2023-05-06T13:34:45.109Z,99290.38
2023-05-06T13:37:12.850Z,99305.65
2023-05-06T13:39:40.518Z,99318.96
2023-05-06T13:42:08.569Z,99313.67
2023-05-06T13:44:36.516Z,99301.05
2023-05-06T13:47:04.217Z,99297.52
2023-05-06T13:49:32.002Z,99293.10
2023-05-06T13:51:59.690Z,99281.30
2023-05-06T13:54:27.354Z,99272.12
2023-05-06T13:56:55.042Z,99267.14
2023-05-06T13:59:22.738Z,99261.79
2023-05-06T14:01:53.868Z,99254.36
2023-05-06T14:04:21.582Z,99255.46
2023-05-06T14:06:49.209Z,99252.73
2023-05-06T14:09:16.987Z,99251.53
2023-05-06T14:11:44.654Z,99249.27
2023-05-06T14:14:12.334Z,99252.80
2023-05-06T14:16:40.112Z,99252.03
2023-05-06T14:19:07.937Z,99251.05
2023-05-06T14:21:35.550Z,99251.98
2023-05-06T14:24:05.098Z,99256.61
2023-05-06T14:26:33.867Z,99252.13
2023-05-06T14:29:01.477Z,99249.05
2023-05-06T14:31:29.666Z,99246.05
2023-05-06T14:33:57.729Z,99244.98
2023-05-06T14:36:25.426Z,99244.90
2023-05-06T14:38:53.109Z,99242.25
2023-05-06T14:41:21.090Z,99236.55
2023-05-06T14:43:48.716Z,99235.38
2023-05-06T14:46:16.580Z,99234.83
2023-05-06T14:48:45.515Z,99237.80
2023-05-06T14:51:13.167Z,99238.85
2023-05-06T14:53:40.805Z,99243.05
2023-05-06T14:56:08.918Z,99243.08
2023-05-06T14:58:36.685Z,99242.98
2023-05-06T15:01:04.509Z,99241.33
2023-05-06T15:03:32.148Z,99244.20
2023-05-06T15:05:59.993Z,99243.31
2023-05-06T15:08:27.921Z,99243.56
2023-05-06T15:10:55.647Z,99250.33
2023-05-06T15:13:23.408Z,99241.66
2023-05-06T15:15:51.298Z,99218.89
2023-05-06T15:18:18.967Z,99209.68
2023-05-06T15:20:46.654Z,99205.54
2023-05-06T15:23:14.267Z,99214.65
2023-05-06T15:25:42.300Z,99210.77
2023-05-06T15:28:10.522Z,99205.33
2023-05-06T15:30:38.283Z,99201.42
2023-05-06T15:33:06.315Z,99201.73
2023-05-06T15:35:34.203Z,99198.15
2023-05-06T15:38:01.909Z,99196.04
2023-05-06T15:40:29.499Z,99199.42
2023-05-06T15:42:57.173Z,99195.98
2023-05-06T15:45:24.869Z,99197.08
2023-05-06T15:47:52.576Z,99193.29
2023-05-06T15:50:32.893Z,99188.35
2023-05-06T15:53:02.337Z,99184.45
2023-05-06T15:55:34.955Z,99182.41
2023-05-06T15:58:09.239Z,99188.07
2023-05-06T16:00:37.201Z,99182.48
2023-05-06T16:03:05.002Z,99183.52
2023-05-06T16:05:32.926Z,99184.77
2023-05-06T16:08:00.631Z,99188.77
2023-05-06T16:10:28.273Z,99191.00
2023-05-06T16:12:55.976Z,99194.60
2023-05-06T16:15:23.623Z,99203.20
2023-05-06T16:17:51.291Z,99206.39
2023-05-06T16:20:18.932Z,99206.52
2023-05-06T16:22:46.715Z,99206.50
2023-05-06T16:25:14.346Z,99211.40
2023-05-06T16:27:42.238Z,99214.31
2023-05-06T16:30:10.146Z,99211.55
2023-05-06T16:32:37.945Z,99211.72
2023-05-06T16:35:05.744Z,99207.80
2023-05-06T16:37:33.347Z,99196.37
2023-05-06T16:40:00.999Z,99201.50
2023-05-06T16:42:28.644Z,99197.80
2023-05-06T16:44:56.292Z,99196.14
2023-05-06T16:47:24.522Z,99197.36
2023-05-06T16:49:52.416Z,99198.20
2023-05-06T16:52:20.066Z,99198.68
2023-05-06T16:54:47.685Z,99201.08
2023-05-06T16:57:15.290Z,99199.05
2023-05-06T16:59:43.158Z,99196.22
2023-05-06T17:02:11.058Z,99192.92
2023-05-06T17:04:38.760Z,99192.61
2023-05-06T17:07:06.392Z,99198.30
2023-05-06T17:09:34.007Z,99197.91
2023-05-06T17:12:02.574Z,99199.77
2023-05-06T17:14:30.238Z,99199.19
2023-05-06T17:16:59.611Z,99194.80
2023-05-06T17:19:27.280Z,99189.58
2023-05-06T17:21:54.914Z,99181.46
2023-05-06T17:24:22.784Z,99183.20
2023-05-06T17:26:50.400Z,99187.02
2023-05-06T17:29:18.090Z,99189.14
2023-05-06T17:31:45.793Z,99181.52
2023-05-06T17:34:13.501Z,99180.23
2023-05-06T17:36:41.619Z,99179.95
2023-05-06T17:39:09.692Z,99182.39
2023-05-06T17:41:37.679Z,99181.20
2023-05-06T17:44:06.807Z,99185.40
2023-05-06T17:46:34.443Z,99188.93
2023-05-06T17:49:02.106Z,99187.52
2023-05-06T17:51:29.759Z,99187.69
2023-05-06T17:53:57.360Z,99189.07
2023-05-06T17:56:25.304Z,99187.24
2023-05-06T17:58:53.028Z,99188.45
2023-05-06T18:01:20.650Z,99188.27
2023-05-06T18:03:50.769Z,99188.64
2023-05-06T18:06:18.790Z,99186.91
2023-05-06T18:08:46.508Z,99189.92
2023-05-06T18:11:14.127Z,99192.30
2023-05-06T18:13:41.860Z,99191.79
2023-05-06T18:16:09.584Z,99190.90
2023-05-06T18:18:37.222Z,99192.92
2023-05-06T18:21:04.869Z,99192.38
2023-05-06T18:23:32.708Z,99200.68
2023-05-06T18:26:00.804Z,99208.55
2023-05-06T18:28:28.446Z,99209.09
2023-05-06T18:30:56.179Z,99215.50
2023-05-06T18:33:23.971Z,99215.52
2023-05-06T18:35:51.632Z,99220.66
2023-05-06T18:38:19.514Z,99220.44
2023-05-06T18:40:47.154Z,99222.93
2023-05-06T18:43:14.777Z,99225.65
2023-05-06T18:45:43.172Z,99228.25
2023-05-06T18:48:11.024Z,99227.58
2023-05-06T18:50:38.869Z,99227.98
2023-05-06T18:53:06.629Z,99227.80
2023-05-06T18:55:34.283Z,99232.77
2023-05-06T18:58:05.717Z,99237.64
2023-05-06T19:00:33.467Z,99240.21
2023-05-06T19:03:01.387Z,99237.95
2023-05-06T19:05:29.036Z,99243.60
2023-05-06T19:07:56.654Z,99246.12
2023-05-06T19:10:24.321Z,99241.10
2023-05-06T19:12:52.566Z,99250.42
2023-05-06T19:15:20.256Z,99253.41
2023-05-06T19:17:47.909Z,99255.05
2023-05-06T19:20:15.570Z,99255.00
2023-05-06T19:22:43.190Z,99261.30
2023-05-06T19:25:11.143Z,99263.17
2023-05-06T19:27:39.024Z,99260.30
2023-05-06T19:30:06.647Z,99255.89
2023-05-06T19:32:34.303Z,99256.95
2023-05-06T19:35:08.014Z,99257.55
2023-05-06T19:37:36.837Z,99256.96
2023-05-06T19:40:04.566Z,99255.98
2023-05-06T19:42:32.198Z,99259.77
2023-05-06T19:44:59.859Z,99254.29
2023-05-06T19:47:27.532Z,99253.34
2023-05-06T19:49:55.431Z,99261.26
2023-05-06T19:52:25.344Z,99262.40
2023-05-06T19:54:54.317Z,99261.94
2023-05-06T19:57:22.102Z,99257.81
2023-05-06T19:59:49.748Z,99261.84
2023-05-06T20:02:17.418Z,99267.98
2023-05-06T20:04:45.117Z,99272.33
2023-05-06T20:07:12.753Z,99272.89
2023-05-06T20:09:40.503Z,99272.52
2023-05-06T20:12:08.137Z,99272.15
2023-05-06T20:14:36.064Z,99272.34
2023-05-06T20:17:03.743Z,99275.55
2023-05-06T20:19:31.395Z,99274.06
2023-05-06T20:21:59.642Z,99275.55
2023-05-06T20:24:29.522Z,99276.48
2023-05-06T20:26:59.078Z,99274.17
2023-05-06T20:29:26.748Z,99276.46
2023-05-06T20:31:54.425Z,99276.00
2023-05-06T20:34:22.116Z,99279.75
2023-05-06T20:36:50.126Z,99284.22
2023-05-06T20:39:18.202Z,99284.35
2023-05-06T20:41:45.939Z,99288.91
2023-05-06T20:44:13.671Z,99289.89
2023-05-06T20:46:41.305Z,99291.54
2023-05-06T20:49:08.968Z,99291.23
2023-05-06T20:51:36.577Z,99294.27
2023-05-06T20:54:04.248Z,99299.52
2023-05-06T20:56:31.922Z,99298.45
2023-05-06T20:58:59.529Z,99302.13
2023-05-06T21:01:27.324Z,99302.70
2023-05-06T21:03:55.191Z,99312.09
2023-05-06T21:06:22.913Z,99312.55
2023-05-06T21:08:52.123Z,99309.58
2023-05-06T21:11:19.749Z,99313.77
2023-05-06T21:13:48.276Z,99315.98
2023-05-06T21:16:17.790Z,99319.36
2023-05-06T21:18:45.462Z,99318.46
2023-05-06T21:21:13.458Z,99320.47
2023-05-06T21:23:41.134Z,99321.11
2023-05-06T21:26:08.849Z,99324.90
2023-05-06T21:28:36.483Z,99322.50
2023-05-06T21:31:04.265Z,99327.23
2023-05-06T21:33:31.924Z,99322.88
2023-05-06T21:35:59.591Z,99325.55
2023-05-06T21:38:28.024Z,99323.95
2023-05-06T21:40:56.004Z,99328.44
2023-05-06T21:43:23.598Z,99334.50
2023-05-06T21:45:51.294Z,99337.60
2023-05-06T21:48:19.033Z,99341.30
2023-05-06T21:50:46.659Z,99345.20
2023-05-06T21:53:14.330Z,99352.30
2023-05-06T21:55:41.937Z,99352.40
2023-05-06T21:58:09.611Z,99356.84
2023-05-06T22:00:37.243Z,99364.60
2023-05-06T22:03:04.942Z,99361.58
2023-05-06T22:05:32.710Z,99365.49
2023-05-06T22:08:00.433Z,99362.59
2023-05-06T22:10:28.077Z,99361.58
2023-05-06T22:12:56.481Z,99362.29
2023-05-06T22:15:24.168Z,99367.56
2023-05-06T22:17:51.961Z,99369.20
2023-05-06T22:20:21.556Z,99371.14
2023-05-06T22:22:49.393Z,99374.98
2023-05-06T22:25:17.031Z,99374.44
2023-05-06T22:27:44.653Z,99379.14
2023-05-06T22:30:12.326Z,99379.52
2023-05-06T22:32:39.975Z,99384.37
2023-05-06T22:35:07.768Z,99385.58
2023-05-06T22:37:35.434Z,99383.48
2023-05-06T22:40:03.070Z,99383.85
2023-05-06T22:42:30.830Z,99382.98
2023-05-06T22:44:58.444Z,99384.73
2023-05-06T22:47:26.342Z,99386.85
2023-05-06T22:49:54.002Z,99387.40
2023-05-06T22:52:21.728Z,99388.12
2023-05-06T22:54:49.387Z,99383.20
2023-05-06T22:57:19.250Z,99380.56
2023-05-06T22:59:47.358Z,99381.41
2023-05-06T23:02:14.976Z,99387.51
2023-05-06T23:04:42.698Z,99383.68
2023-05-06T23:07:11.292Z,99386.30
2023-05-06T23:09:38.925Z,99383.52
2023-05-06T23:12:06.581Z,99391.15
2023-05-06T23:14:34.169Z,99392.34
2023-05-06T23:17:01.866Z,99390.62
2023-05-06T23:19:29.627Z,99389.64
2023-05-06T23:21:57.441Z,99386.70
2023-05-06T23:24:25.093Z,99391.41
2023-05-06T23:26:52.794Z,99388.30
2023-05-06T23:29:20.445Z,99384.66
2023-05-06T23:31:48.062Z,99383.80
2023-05-06T23:34:15.706Z,99385.73
2023-05-06T23:36:43.360Z,99386.41
2023-05-06T23:39:12.515Z,99384.51
2023-05-06T23:41:40.142Z,99389.39
2023-05-06T23:44:07.773Z,99385.91
2023-05-06T23:46:35.452Z,99388.20
2023-05-06T23:49:04.169Z,99386.09
2023-05-06T23:51:33.040Z,99386.62
2023-05-06T23:54:00.730Z,99387.70
2023-05-06T23:56:28.745Z,99386.14
2023-05-06T23:58:56.365Z,99384.23
